Private Wetterstation Sandau
Wetterdaten: Freitag, 06.04.2012
Datum Zeit Temp. A. Feuchte A. Luftdruck Regen Wind Richtung Richtung Taupunkt Windchill
06.04.2012 00:02 3,9 C 77 % 1018,4 hPa 0,0 l/m 0,0 km/h (0 Bft) SO 135 0,2 C 3,9 C
06.04.2012 00:07 3,8 C 77 % 1018,4 hPa 0,0 l/m 0,0 km/h (0 Bft) O 90 0,1 C 3,8 C
06.04.2012 00:12 3,6 C 77 % 1018,5 hPa 0,0 l/m 0,0 km/h (0 Bft) O-NO 67 -0,0 C 3,6 C
06.04.2012 00:17 3,6 C 77 % 1018,4 hPa 0,0 l/m 0,0 km/h (0 Bft) O-NO 67 -0,0 C 3,6 C
06.04.2012 00:22 3,5 C 78 % 1018,4 hPa 0,0 l/m 0,0 km/h (0 Bft) O-NO 67 0,0 C 3,5 C
06.04.2012 00:27 3,4 C 78 % 1018,3 hPa 0,0 l/m 0,0 km/h (0 Bft) O-NO 67 -0,1 C 3,4 C
06.04.2012 00:32 3,3 C 78 % 1018,3 hPa 0,0 l/m 1,4 km/h (1 Bft) O-NO 67 -0,2 C 3,3 C
06.04.2012 00:37 3,3 C 79 % 1018,3 hPa 0,0 l/m 0,0 km/h (0 Bft) O-NO 67 0,0 C 3,3 C
06.04.2012 00:42 3,3 C 79 % 1018,4 hPa 0,0 l/m 2,5 km/h (1 Bft) O-NO 67 0,0 C 3,3 C
06.04.2012 00:47 3,1 C 79 % 1018,4 hPa 0,0 l/m 2,5 km/h (1 Bft) O-NO 67 -0,2 C 3,1 C
06.04.2012 00:52 3,0 C 79 % 1018,5 hPa 0,0 l/m 0,0 km/h (0 Bft) O-NO 67 -0,3 C 3,0 C
06.04.2012 00:57 2,9 C 79 % 1018,2 hPa 0,0 l/m 2,2 km/h (1 Bft) O-NO 67 -0,4 C 2,9 C
06.04.2012 01:02 2,9 C 79 % 1018,2 hPa 0,0 l/m 1,1 km/h (1 Bft) O-NO 67 -0,4 C 2,9 C
06.04.2012 01:07 2,9 C 79 % 1018,2 hPa 0,0 l/m 2,5 km/h (1 Bft) O-NO 67 -0,4 C 2,9 C
06.04.2012 01:12 2,8 C 80 % 1018,2 hPa 0,0 l/m 1,8 km/h (1 Bft) O-NO 67 -0,3 C 2,8 C
06.04.2012 01:17 2,7 C 80 % 1018,2 hPa 0,0 l/m 1,4 km/h (1 Bft) O-NO 67 -0,4 C 2,7 C
06.04.2012 01:22 2,5 C 79 % 1018,2 hPa 0,0 l/m 2,2 km/h (1 Bft) O-NO 67 -0,8 C 2,5 C
06.04.2012 01:27 2,4 C 79 % 1017,9 hPa 0,0 l/m 3,2 km/h (1 Bft) O-NO 67 -0,9 C 2,4 C
06.04.2012 01:32 2,4 C 79 % 1017,9 hPa 0,0 l/m 4,0 km/h (1 Bft) O-NO 67 -0,9 C 2,4 C
06.04.2012 01:37 2,4 C 79 % 1017,9 hPa 0,0 l/m 5,4 km/h (1 Bft) O-NO 67 -0,9 C 1,0 C
06.04.2012 01:42 2,4 C 78 % 1017,9 hPa 0,0 l/m 3,2 km/h (1 Bft) O-NO 67 -1,0 C 2,4 C
06.04.2012 01:47 2,4 C 78 % 1017,9 hPa 0,0 l/m 3,2 km/h (1 Bft) O-NO 67 -1,0 C 2,4 C
06.04.2012 01:52 2,4 C 78 % 1017,9 hPa 0,0 l/m 2,9 km/h (1 Bft) O-NO 67 -1,0 C 2,4 C
06.04.2012 01:57 2,3 C 78 % 1017,9 hPa 0,0 l/m 2,9 km/h (1 Bft) O-NO 67 -1,1 C 2,3 C
06.04.2012 02:02 2,3 C 78 % 1017,9 hPa 0,0 l/m 5,4 km/h (1 Bft) O-NO 67 -1,1 C 0,9 C
06.04.2012 02:07 2,2 C 78 % 1017,7 hPa 0,0 l/m 3,6 km/h (1 Bft) O-NO 67 -1,2 C 2,2 C
06.04.2012 02:12 2,1 C 77 % 1017,6 hPa 0,0 l/m 4,3 km/h (1 Bft) O-NO 67 -1,5 C 2,1 C
06.04.2012 02:17 2,1 C 77 % 1017,6 hPa 0,0 l/m 4,0 km/h (1 Bft) O-NO 67 -1,5 C 2,1 C
06.04.2012 02:22 1,9 C 77 % 1017,6 hPa 0,0 l/m 4,7 km/h (1 Bft) O-NO 67 -1,7 C 0,7 C
06.04.2012 02:27 1,9 C 77 % 1017,6 hPa 0,0 l/m 4,3 km/h (1 Bft) O-NO 67 -1,7 C 1,9 C
06.04.2012 02:32 1,9 C 77 % 1017,5 hPa 0,0 l/m 2,9 km/h (1 Bft) O 90 -1,7 C 1,9 C
06.04.2012 02:37 1,8 C 77 % 1017,5 hPa 0,0 l/m 3,2 km/h (1 Bft) O-NO 67 -1,8 C 1,8 C
06.04.2012 02:42 1,8 C 77 % 1017,4 hPa 0,0 l/m 4,0 km/h (1 Bft) O-NO 67 -1,8 C 1,8 C
06.04.2012 02:47 1,7 C 77 % 1017,4 hPa 0,0 l/m 2,5 km/h (1 Bft) O-NO 67 -1,9 C 1,7 C
06.04.2012 02:52 1,6 C 77 % 1017,0 hPa 0,0 l/m 0,0 km/h (0 Bft) O-NO 67 -2,0 C 1,6 C
06.04.2012 02:57 1,6 C 77 % 1017,1 hPa 0,0 l/m 1,4 km/h (1 Bft) O-NO 67 -2,0 C 1,6 C
06.04.2012 03:02 1,6 C 77 % 1017,1 hPa 0,0 l/m 3,6 km/h (1 Bft) O-NO 67 -2,0 C 1,6 C
06.04.2012 03:07 1,6 C 78 % 1017,1 hPa 0,0 l/m 1,1 km/h (1 Bft) O-NO 67 -1,8 C 1,6 C
06.04.2012 03:12 1,5 C 78 % 1017,1 hPa 0,0 l/m 0,0 km/h (0 Bft) O-NO 67 -1,9 C 1,5 C
06.04.2012 03:17 1,5 C 78 % 1017,0 hPa 0,0 l/m 0,0 km/h (0 Bft) O-NO 67 -1,9 C 1,5 C
06.04.2012 03:22 1,5 C 78 % 1017,0 hPa 0,0 l/m 0,0 km/h (0 Bft) O-NO 67 -1,9 C 1,5 C
06.04.2012 03:27 1,4 C 78 % 1017,0 hPa 0,0 l/m 0,0 km/h (0 Bft) O-NO 67 -2,0 C 1,4 C
06.04.2012 03:32 1,3 C 78 % 1017,0 hPa 0,0 l/m 1,4 km/h (1 Bft) O-NO 67 -2,1 C 1,3 C
06.04.2012 03:37 1,3 C 78 % 1016,9 hPa 0,0 l/m 0,0 km/h (0 Bft) O-NO 67 -2,1 C 1,3 C
06.04.2012 03:42 1,3 C 78 % 1016,6 hPa 0,0 l/m 0,0 km/h (0 Bft) O-NO 67 -2,1 C 1,3 C
06.04.2012 03:47 1,3 C 78 % 1016,5 hPa 0,0 l/m 0,0 km/h (0 Bft) O-NO 67 -2,1 C 1,3 C
06.04.2012 03:52 1,3 C 78 % 1016,5 hPa 0,0 l/m 0,0 km/h (0 Bft) O-NO 67 -2,1 C 1,3 C
06.04.2012 03:57 1,3 C 79 % 1016,4 hPa 0,0 l/m 0,0 km/h (0 Bft) O-NO 67 -1,9 C 1,3 C
06.04.2012 04:02 1,3 C 79 % 1016,4 hPa 0,0 l/m 0,0 km/h (0 Bft) O-NO 67 -1,9 C 1,3 C
06.04.2012 04:07 1,3 C 79 % 1016,4 hPa 0,0 l/m 0,0 km/h (0 Bft) O-NO 67 -1,9 C 1,3 C
06.04.2012 04:12 1,3 C 79 % 1016,3 hPa 0,0 l/m 0,0 km/h (0 Bft) O-NO 67 -1,9 C 1,3 C
06.04.2012 04:17 1,3 C 79 % 1016,1 hPa 0,0 l/m 0,0 km/h (0 Bft) O-NO 67 -1,9 C 1,3 C
06.04.2012 04:22 1,3 C 79 % 1016,3 hPa 0,0 l/m 0,0 km/h (0 Bft) O-NO 67 -1,9 C 1,3 C
06.04.2012 04:27 1,2 C 79 % 1016,2 hPa 0,0 l/m 0,0 km/h (0 Bft) O-NO 67 -2,0 C 1,2 C
06.04.2012 04:32 1,1 C 79 % 1016,3 hPa 0,0 l/m 0,0 km/h (0 Bft) O-NO 67 -2,1 C 1,1 C
06.04.2012 04:37 0,9 C 79 % 1016,2 hPa 0,0 l/m 0,0 km/h (0 Bft) O-NO 67 -2,3 C 0,9 C
06.04.2012 04:42 0,8 C 79 % 1016,1 hPa 0,0 l/m 0,0 km/h (0 Bft) O-NO 67 -2,4 C 0,8 C
06.04.2012 04:47 0,6 C 79 % 1016,0 hPa 0,0 l/m 0,0 km/h (0 Bft) O-NO 67 -2,6 C 0,6 C
06.04.2012 04:52 0,6 C 79 % 1016,0 hPa 0,0 l/m 0,0 km/h (0 Bft) O-NO 67 -2,6 C 0,6 C
06.04.2012 04:57 0,6 C 80 % 1015,9 hPa 0,0 l/m 0,0 km/h (0 Bft) O-NO 67 -2,4 C 0,6 C
06.04.2012 05:02 0,5 C 80 % 1015,8 hPa 0,0 l/m 0,0 km/h (0 Bft) O-NO 67 -2,5 C 0,5 C
06.04.2012 05:07 0,4 C 80 % 1015,7 hPa 0,0 l/m 0,0 km/h (0 Bft) O-NO 67 -2,6 C 0,4 C
06.04.2012 05:12 0,4 C 80 % 1015,6 hPa 0,0 l/m 0,0 km/h (0 Bft) O-NO 67 -2,6 C 0,4 C
06.04.2012 05:17 0,3 C 80 % 1015,6 hPa 0,0 l/m 0,0 km/h (0 Bft) O-NO 67 -2,7 C 0,3 C
06.04.2012 05:22 0,3 C 80 % 1015,4 hPa 0,0 l/m 0,0 km/h (0 Bft) O-NO 67 -2,7 C 0,3 C
06.04.2012 05:27 0,3 C 80 % 1015,3 hPa 0,0 l/m 0,0 km/h (0 Bft) O-NO 67 -2,7 C 0,3 C
06.04.2012 05:32 0,2 C 81 % 1015,3 hPa 0,0 l/m 0,0 km/h (0 Bft) O-NO 67 -2,7 C 0,2 C
06.04.2012 05:37 0,1 C 81 % 1015,2 hPa 0,0 l/m 0,0 km/h (0 Bft) O-NO 67 -2,8 C 0,1 C
06.04.2012 05:42 0,1 C 81 % 1015,3 hPa 0,0 l/m 0,0 km/h (0 Bft) O-NO 67 -2,8 C 0,1 C
06.04.2012 05:47 0,1 C 81 % 1015,2 hPa 0,0 l/m 0,0 km/h (0 Bft) O-NO 67 -2,8 C 0,1 C
06.04.2012 05:52 0,2 C 81 % 1015,2 hPa 0,0 l/m 0,0 km/h (0 Bft) O-NO 67 -2,7 C 0,2 C
06.04.2012 05:57 0,2 C 81 % 1015,2 hPa 0,0 l/m 0,0 km/h (0 Bft) O-NO 67 -2,7 C 0,2 C
06.04.2012 06:02 0,2 C 81 % 1015,2 hPa 0,0 l/m 0,0 km/h (0 Bft) O-NO 67 -2,7 C 0,2 C
06.04.2012 06:07 0,1 C 81 % 1015,1 hPa 0,0 l/m 0,0 km/h (0 Bft) O-NO 67 -2,8 C 0,1 C
06.04.2012 06:12 0,0 C 81 % 1015,1 hPa 0,0 l/m 0,0 km/h (0 Bft) O-NO 67 -2,9 C 0,0 C
06.04.2012 06:17 -0,1 C 81 % 1015,1 hPa 0,0 l/m 0,0 km/h (0 Bft) O-NO 67 -3,0 C -0,1 C
06.04.2012 06:22 -0,1 C 81 % 1015,1 hPa 0,0 l/m 0,0 km/h (0 Bft) O-NO 67 -3,0 C -0,1 C
06.04.2012 06:27 -0,1 C 81 % 1015,0 hPa 0,0 l/m 0,0 km/h (0 Bft) O-NO 67 -3,0 C -0,1 C
06.04.2012 06:32 -0,1 C 81 % 1015,2 hPa 0,0 l/m 0,0 km/h (0 Bft) O-NO 67 -3,0 C -0,1 C
06.04.2012 06:37 -0,1 C 81 % 1014,9 hPa 0,0 l/m 0,0 km/h (0 Bft) O-NO 67 -3,0 C -0,1 C
06.04.2012 06:42 -0,1 C 81 % 1015,0 hPa 0,0 l/m 0,0 km/h (0 Bft) O-NO 67 -3,0 C -0,1 C
06.04.2012 06:47 -0,1 C 81 % 1014,9 hPa 0,0 l/m 0,0 km/h (0 Bft) O-NO 67 -3,0 C -0,1 C
06.04.2012 06:52 -0,1 C 81 % 1014,7 hPa 0,0 l/m 0,0 km/h (0 Bft) O-NO 67 -3,0 C -0,1 C
06.04.2012 06:57 -0,1 C 81 % 1014,6 hPa 0,0 l/m 0,0 km/h (0 Bft) O-NO 67 -3,0 C -0,1 C
06.04.2012 07:02 -0,1 C 81 % 1015,0 hPa 0,0 l/m 0,0 km/h (0 Bft) O-NO 67 -3,0 C -0,1 C
06.04.2012 07:07 -0,1 C 81 % 1014,9 hPa 0,0 l/m 0,0 km/h (0 Bft) O-NO 67 -3,0 C -0,1 C
06.04.2012 07:12 -0,1 C 82 % 1014,9 hPa 0,0 l/m 0,0 km/h (0 Bft) O-NO 67 -2,8 C -0,1 C
06.04.2012 07:17 0,1 C 82 % 1014,9 hPa 0,0 l/m 0,0 km/h (0 Bft) O-NO 67 -2,6 C 0,1 C
06.04.2012 07:22 0,3 C 82 % 1014,9 hPa 0,0 l/m 0,0 km/h (0 Bft) O-NO 67 -2,4 C 0,3 C
06.04.2012 07:27 0,4 C 82 % 1014,9 hPa 0,0 l/m 0,0 km/h (0 Bft) O-NO 67 -2,3 C 0,4 C
06.04.2012 07:32 0,6 C 82 % 1014,8 hPa 0,0 l/m 0,0 km/h (0 Bft) O-NO 67 -2,1 C 0,6 C
06.04.2012 07:37 0,7 C 82 % 1014,7 hPa 0,0 l/m 0,0 km/h (0 Bft) O-NO 67 -2,0 C 0,7 C
06.04.2012 07:42 0,9 C 82 % 1014,7 hPa 0,0 l/m 0,0 km/h (0 Bft) O-NO 67 -1,8 C 0,9 C
06.04.2012 07:47 0,9 C 82 % 1014,7 hPa 0,0 l/m 0,0 km/h (0 Bft) O-NO 67 -1,8 C 0,9 C
06.04.2012 07:52 1,1 C 82 % 1014,6 hPa 0,0 l/m 0,0 km/h (0 Bft) O-NO 67 -1,6 C 1,1 C
06.04.2012 07:57 1,3 C 82 % 1014,8 hPa 0,0 l/m 0,0 km/h (0 Bft) O-NO 67 -1,4 C 1,3 C
06.04.2012 08:02 1,3 C 82 % 1014,7 hPa 0,0 l/m 1,4 km/h (1 Bft) O-NO 67 -1,4 C 1,3 C
06.04.2012 08:07 1,3 C 82 % 1014,6 hPa 0,0 l/m 0,0 km/h (0 Bft) O-NO 67 -1,4 C 1,3 C
06.04.2012 08:12 1,4 C 81 % 1014,6 hPa 0,0 l/m 1,1 km/h (1 Bft) O-NO 67 -1,5 C 1,4 C
06.04.2012 08:17 1,4 C 81 % 1014,4 hPa 0,0 l/m 0,0 km/h (0 Bft) O-NO 67 -1,5 C 1,4 C
06.04.2012 08:22 1,6 C 81 % 1014,5 hPa 0,0 l/m 0,0 km/h (0 Bft) O-NO 67 -1,3 C 1,6 C
06.04.2012 08:27 1,8 C 81 % 1014,5 hPa 0,0 l/m 0,0 km/h (0 Bft) O-NO 67 -1,1 C 1,8 C
06.04.2012 08:32 1,9 C 80 % 1014,4 hPa 0,0 l/m 0,0 km/h (0 Bft) O-NO 67 -1,2 C 1,9 C
06.04.2012 08:37 2,1 C 80 % 1014,2 hPa 0,0 l/m 0,0 km/h (0 Bft) O-NO 67 -1,0 C 2,1 C
06.04.2012 08:42 2,2 C 79 % 1014,2 hPa 0,0 l/m 2,2 km/h (1 Bft) O-NO 67 -1,1 C 2,2 C
06.04.2012 08:47 2,4 C 78 % 1014,3 hPa 0,0 l/m 0,0 km/h (0 Bft) O-NO 67 -1,0 C 2,4 C
06.04.2012 08:52 2,5 C 78 % 1014,0 hPa 0,0 l/m 0,0 km/h (0 Bft) O-NO 67 -0,9 C 2,5 C
06.04.2012 08:57 2,8 C 78 % 1014,1 hPa 0,0 l/m 0,0 km/h (0 Bft) O-NO 67 -0,6 C 2,8 C
06.04.2012 09:02 2,9 C 77 % 1014,2 hPa 0,0 l/m 0,0 km/h (0 Bft) O-NO 67 -0,7 C 2,9 C
06.04.2012 09:07 3,1 C 76 % 1014,0 hPa 0,0 l/m 0,0 km/h (0 Bft) O-NO 67 -0,7 C 3,1 C
06.04.2012 09:12 3,3 C 76 % 1014,0 hPa 0,0 l/m 0,0 km/h (0 Bft) O-NO 67 -0,5 C 3,3 C
06.04.2012 09:17 3,5 C 75 % 1014,2 hPa 0,0 l/m 2,2 km/h (1 Bft) O-NO 67 -0,5 C 3,5 C
06.04.2012 09:22 3,6 C 75 % 1013,9 hPa 0,0 l/m 2,2 km/h (1 Bft) O-NO 67 -0,4 C 3,6 C
06.04.2012 09:27 3,8 C 75 % 1014,2 hPa 0,0 l/m 0,0 km/h (0 Bft) W-NW 292 -0,2 C 3,8 C
06.04.2012 09:32 4,1 C 75 % 1014,0 hPa 0,0 l/m 0,0 km/h (0 Bft) N 360 0,1 C 4,1 C
06.04.2012 09:37 4,2 C 74 % 1014,1 hPa 0,0 l/m 2,5 km/h (1 Bft) W-SW 247 -0,0 C 4,2 C
06.04.2012 09:42 4,4 C 74 % 1013,9 hPa 0,0 l/m 2,2 km/h (1 Bft) W-NW 292 0,2 C 4,4 C
06.04.2012 09:47 4,4 C 73 % 1014,0 hPa 0,0 l/m 6,1 km/h (2 Bft) SW 225 -0,0 C 3,0 C
06.04.2012 09:52 4,6 C 73 % 1014,1 hPa 0,0 l/m 0,0 km/h (0 Bft) S-SW 202 0,2 C 4,6 C
06.04.2012 09:57 4,8 C 73 % 1014,0 hPa 0,0 l/m 0,0 km/h (0 Bft) SW 225 0,4 C 4,8 C
06.04.2012 10:02 4,8 C 73 % 1013,9 hPa 0,0 l/m 2,2 km/h (1 Bft) W 270 0,4 C 4,8 C
06.04.2012 10:07 4,9 C 72 % 1014,0 hPa 0,0 l/m 6,1 km/h (2 Bft) W-NW 292 0,3 C 3,6 C
06.04.2012 10:12 4,9 C 72 % 1013,9 hPa 0,0 l/m 4,0 km/h (1 Bft) W-NW 292 0,3 C 4,9 C
06.04.2012 10:17 5,1 C 72 % 1013,9 hPa 0,0 l/m 3,6 km/h (1 Bft) W-NW 292 0,5 C 5,1 C
06.04.2012 10:22 5,3 C 72 % 1013,7 hPa 0,0 l/m 6,1 km/h (2 Bft) W 270 0,7 C 4,0 C
06.04.2012 10:27 5,4 C 72 % 1013,8 hPa 0,0 l/m 0,0 km/h (0 Bft) W-NW 292 0,8 C 5,4 C
06.04.2012 10:32 5,6 C 72 % 1013,7 hPa 0,0 l/m 0,0 km/h (0 Bft) W-SW 247 1,0 C 5,6 C
06.04.2012 10:37 5,6 C 72 % 1013,8 hPa 0,0 l/m 1,4 km/h (1 Bft) W 270 1,0 C 5,6 C
06.04.2012 10:42 5,8 C 71 % 1013,8 hPa 0,0 l/m 3,2 km/h (1 Bft) W-NW 292 1,0 C 5,8 C
06.04.2012 10:47 5,9 C 71 % 1013,8 hPa 0,0 l/m 2,5 km/h (1 Bft) N-NW 337 1,1 C 5,9 C
06.04.2012 10:52 5,9 C 70 % 1013,6 hPa 0,0 l/m 4,7 km/h (1 Bft) W 270 0,9 C 5,2 C
06.04.2012 10:57 6,1 C 70 % 1013,6 hPa 0,0 l/m 5,8 km/h (2 Bft) W 270 1,0 C 5,1 C
06.04.2012 11:02 6,3 C 70 % 1013,6 hPa 0,0 l/m 0,0 km/h (0 Bft) W 270 1,2 C 6,3 C
06.04.2012 11:07 6,5 C 70 % 1013,6 hPa 0,0 l/m 4,0 km/h (1 Bft) W-SW 247 1,4 C 6,5 C
06.04.2012 11:12 6,7 C 70 % 1013,5 hPa 0,0 l/m 4,7 km/h (1 Bft) W-SW 247 1,6 C 6,1 C
06.04.2012 11:17 6,9 C 70 % 1013,5 hPa 0,0 l/m 1,4 km/h (1 Bft) S 180 1,8 C 6,9 C
06.04.2012 11:22 7,2 C 70 % 1013,5 hPa 0,0 l/m 6,1 km/h (2 Bft) NW 315 2,1 C 6,2 C
06.04.2012 11:27 7,3 C 68 % 1013,2 hPa 0,0 l/m 8,3 km/h (2 Bft) W-SW 247 1,8 C 5,8 C
06.04.2012 11:32 7,4 C 68 % 1013,1 hPa 0,0 l/m 4,7 km/h (1 Bft) SW 225 1,9 C 6,9 C
06.04.2012 11:37 7,6 C 68 % 1013,1 hPa 0,0 l/m 1,4 km/h (1 Bft) SW 225 2,1 C 7,6 C
06.04.2012 11:42 7,8 C 67 % 1013,1 hPa 0,0 l/m 0,0 km/h (0 Bft) NO 45 2,1 C 7,8 C
06.04.2012 11:47 7,9 C 66 % 1013,0 hPa 0,0 l/m 2,2 km/h (1 Bft) W-SW 247 1,9 C 7,9 C
06.04.2012 11:52 8,1 C 66 % 1012,9 hPa 0,0 l/m 1,8 km/h (1 Bft) N-NW 337 2,1 C 8,1 C
06.04.2012 11:57 8,2 C 65 % 1012,9 hPa 0,0 l/m 4,3 km/h (1 Bft) W-NW 292 2,0 C 8,2 C
06.04.2012 12:02 8,3 C 65 % 1012,8 hPa 0,0 l/m 0,0 km/h (0 Bft) W-NW 292 2,1 C 8,3 C
06.04.2012 12:07 8,4 C 65 % 1012,8 hPa 0,0 l/m 7,6 km/h (2 Bft) W-SW 247 2,2 C 7,2 C
06.04.2012 12:12 8,5 C 65 % 1012,6 hPa 0,0 l/m 4,7 km/h (1 Bft) W-NW 292 2,3 C 8,2 C
06.04.2012 12:17 8,6 C 62 % 1012,4 hPa 0,0 l/m 4,0 km/h (1 Bft) W-SW 247 1,7 C 8,6 C
06.04.2012 12:22 8,8 C 62 % 1012,4 hPa 0,0 l/m 4,0 km/h (1 Bft) S-SO 157 1,9 C 8,8 C
06.04.2012 12:27 8,9 C 60 % 1012,4 hPa 0,0 l/m 3,6 km/h (1 Bft) W-SW 247 1,6 C 8,9 C
06.04.2012 12:32 8,9 C 58 % 1012,3 hPa 0,0 l/m 0,0 km/h (0 Bft) W-NW 292 1,1 C 8,9 C
06.04.2012 12:37 8,8 C 58 % 1012,2 hPa 0,0 l/m 2,9 km/h (1 Bft) S 180 1,0 C 8,8 C
06.04.2012 12:42 8,9 C 58 % 1012,1 hPa 0,0 l/m 1,1 km/h (1 Bft) S 180 1,1 C 8,9 C
06.04.2012 12:47 9,1 C 57 % 1012,0 hPa 0,0 l/m 4,7 km/h (1 Bft) W-NW 292 1,0 C 8,8 C
06.04.2012 12:52 9,3 C 57 % 1012,0 hPa 0,0 l/m 3,6 km/h (1 Bft) W-NW 292 1,2 C 9,3 C
06.04.2012 12:57 9,3 C 56 % 1011,9 hPa 0,0 l/m 1,8 km/h (1 Bft) N-NW 337 1,0 C 9,3 C
06.04.2012 13:02 9,3 C 56 % 1011,9 hPa 0,0 l/m 5,4 km/h (1 Bft) W 270 1,0 C 8,8 C
06.04.2012 13:07 9,3 C 56 % 1011,9 hPa 0,0 l/m 5,0 km/h (1 Bft) W 270 1,0 C 9,0 C
06.04.2012 13:12 9,3 C 56 % 1011,9 hPa 0,0 l/m 5,8 km/h (2 Bft) W 270 1,0 C 8,7 C
06.04.2012 13:17 9,3 C 56 % 1011,8 hPa 0,0 l/m 9,0 km/h (2 Bft) NW 315 1,0 C 8,0 C
06.04.2012 13:22 9,4 C 57 % 1011,5 hPa 0,0 l/m 3,6 km/h (1 Bft) W-NW 292 1,3 C 9,4 C
06.04.2012 13:27 9,4 C 57 % 1011,5 hPa 0,0 l/m 5,0 km/h (1 Bft) W-NW 292 1,3 C 9,1 C
06.04.2012 13:32 9,5 C 57 % 1011,5 hPa 0,0 l/m 4,0 km/h (1 Bft) W 270 1,4 C 9,5 C
06.04.2012 13:37 9,4 C 56 % 1011,4 hPa 0,0 l/m 3,6 km/h (1 Bft) W 270 1,1 C 9,4 C
06.04.2012 13:42 9,4 C 56 % 1011,4 hPa 0,0 l/m 2,5 km/h (1 Bft) NW 315 1,1 C 9,4 C
06.04.2012 13:47 9,3 C 57 % 1011,3 hPa 0,0 l/m 6,1 km/h (2 Bft) N-NW 337 1,2 C 8,6 C
06.04.2012 13:52 9,3 C 58 % 1011,3 hPa 0,0 l/m 2,5 km/h (1 Bft) W 270 1,5 C 9,3 C
06.04.2012 13:57 9,3 C 58 % 1011,1 hPa 0,0 l/m 6,8 km/h (2 Bft) W-NW 292 1,5 C 8,5 C
06.04.2012 14:02 9,3 C 58 % 1011,0 hPa 0,0 l/m 6,5 km/h (2 Bft) NW 315 1,5 C 8,5 C
06.04.2012 14:07 9,3 C 58 % 1011,0 hPa 0,0 l/m 4,3 km/h (1 Bft) W 270 1,5 C 9,3 C
06.04.2012 14:12 9,3 C 58 % 1010,9 hPa 0,0 l/m 4,0 km/h (1 Bft) N-NW 337 1,5 C 9,3 C
06.04.2012 14:17 9,3 C 58 % 1010,9 hPa 0,0 l/m 4,0 km/h (1 Bft) W-SW 247 1,5 C 9,3 C
06.04.2012 14:22 9,3 C 59 % 1010,9 hPa 0,0 l/m 5,8 km/h (2 Bft) W-SW 247 1,7 C 8,7 C
06.04.2012 14:27 9,2 C 59 % 1010,8 hPa 0,0 l/m 10,8 km/h (2 Bft) W 270 1,6 C 7,5 C
06.04.2012 14:32 9,2 C 59 % 1010,8 hPa 0,0 l/m 15,5 km/h (3 Bft) W-SW 247 1,6 C 6,9 C
06.04.2012 14:37 9,1 C 59 % 1010,7 hPa 0,0 l/m 13,3 km/h (3 Bft) W-SW 247 1,5 C 7,0 C
06.04.2012 14:42 9,1 C 59 % 1010,6 hPa 0,0 l/m 9,0 km/h (2 Bft) W-SW 247 1,5 C 7,7 C
06.04.2012 14:47 9,1 C 59 % 1010,4 hPa 0,0 l/m 14,4 km/h (3 Bft) W 270 1,5 C 6,9 C
06.04.2012 14:52 8,9 C 59 % 1010,3 hPa 0,0 l/m 7,2 km/h (2 Bft) W 270 1,3 C 7,9 C
06.04.2012 14:57 9,0 C 60 % 1010,2 hPa 0,0 l/m 7,6 km/h (2 Bft) W-SW 247 1,7 C 7,9 C
06.04.2012 15:02 8,9 C 60 % 1010,2 hPa 0,0 l/m 17,3 km/h (3 Bft) W-SW 247 1,6 C 6,3 C
06.04.2012 15:07 8,9 C 60 % 1010,2 hPa 0,0 l/m 10,1 km/h (2 Bft) SW 225 1,6 C 7,3 C
06.04.2012 15:12 8,9 C 60 % 1010,1 hPa 0,0 l/m 10,8 km/h (2 Bft) W 270 1,6 C 7,2 C
06.04.2012 15:17 8,8 C 59 % 1010,1 hPa 0,0 l/m 14,8 km/h (3 Bft) SW 225 1,2 C 6,5 C
06.04.2012 15:22 8,7 C 60 % 1010,0 hPa 0,0 l/m 9,0 km/h (2 Bft) W-SW 247 1,4 C 7,3 C
06.04.2012 15:27 8,7 C 60 % 1010,0 hPa 0,0 l/m 5,8 km/h (2 Bft) W-SW 247 1,4 C 8,0 C
06.04.2012 15:32 8,6 C 61 % 1009,9 hPa 0,0 l/m 9,0 km/h (2 Bft) W 270 1,5 C 7,2 C
06.04.2012 15:37 8,6 C 60 % 1009,8 hPa 0,0 l/m 7,9 km/h (2 Bft) W-SW 247 1,3 C 7,4 C
06.04.2012 15:42 8,5 C 60 % 1009,7 hPa 0,0 l/m 7,2 km/h (2 Bft) W-SW 247 1,2 C 7,4 C
06.04.2012 15:47 8,4 C 60 % 1009,8 hPa 0,0 l/m 16,2 km/h (3 Bft) W 270 1,1 C 5,8 C
06.04.2012 15:52 8,4 C 61 % 1009,7 hPa 0,0 l/m 2,2 km/h (1 Bft) N-NW 337 1,3 C 8,4 C
06.04.2012 15:57 8,4 C 60 % 1009,6 hPa 0,0 l/m 18,0 km/h (3 Bft) W-SW 247 1,1 C 5,6 C
06.04.2012 16:02 8,4 C 60 % 1009,3 hPa 0,0 l/m 15,1 km/h (3 Bft) W-SW 247 1,1 C 5,9 C
06.04.2012 16:07 8,4 C 60 % 1009,3 hPa 0,0 l/m 8,6 km/h (2 Bft) W-NW 292 1,1 C 7,0 C
06.04.2012 16:12 8,4 C 60 % 1009,3 hPa 0,0 l/m 10,8 km/h (2 Bft) W 270 1,1 C 6,6 C
06.04.2012 16:17 8,4 C 59 % 1009,2 hPa 0,0 l/m 14,0 km/h (3 Bft) W 270 0,9 C 6,1 C
06.04.2012 16:22 8,3 C 59 % 1009,3 hPa 0,0 l/m 12,6 km/h (3 Bft) W-NW 292 0,8 C 6,2 C
06.04.2012 16:27 8,2 C 60 % 1009,1 hPa 0,0 l/m 1,8 km/h (1 Bft) W 270 0,9 C 8,2 C
06.04.2012 16:32 8,2 C 60 % 1009,1 hPa 0,0 l/m 13,7 km/h (3 Bft) W-SW 247 0,9 C 5,9 C
06.04.2012 16:37 8,2 C 61 % 1008,9 hPa 0,0 l/m 7,6 km/h (2 Bft) W-NW 292 1,1 C 7,0 C
06.04.2012 16:42 8,1 C 60 % 1009,0 hPa 0,0 l/m 13,0 km/h (3 Bft) W 270 0,8 C 5,9 C
06.04.2012 16:47 8,1 C 60 % 1008,8 hPa 0,0 l/m 10,1 km/h (2 Bft) W-NW 292 0,8 C 6,3 C
06.04.2012 16:52 7,9 C 61 % 1008,7 hPa 0,0 l/m 5,8 km/h (2 Bft) W 270 0,9 C 7,1 C
06.04.2012 16:57 7,9 C 61 % 1008,8 hPa 0,0 l/m 6,8 km/h (2 Bft) W 270 0,9 C 6,8 C
06.04.2012 17:02 7,8 C 61 % 1008,5 hPa 0,0 l/m 14,8 km/h (3 Bft) W 270 0,8 C 5,2 C
06.04.2012 17:07 7,8 C 61 % 1008,5 hPa 0,0 l/m 11,9 km/h (2 Bft) W-NW 292 0,8 C 5,7 C
06.04.2012 17:12 7,8 C 61 % 1008,4 hPa 0,0 l/m 16,2 km/h (3 Bft) W 270 0,8 C 5,0 C
06.04.2012 17:17 7,7 C 60 % 1008,4 hPa 0,0 l/m 6,5 km/h (2 Bft) W-SW 247 0,4 C 6,7 C
06.04.2012 17:22 7,6 C 61 % 1008,5 hPa 0,0 l/m 16,9 km/h (3 Bft) W-SW 247 0,6 C 4,7 C
06.04.2012 17:27 7,6 C 61 % 1008,2 hPa 0,0 l/m 14,4 km/h (3 Bft) W 270 0,6 C 5,0 C
06.04.2012 17:32 7,6 C 61 % 1008,4 hPa 0,0 l/m 9,0 km/h (2 Bft) S-SW 202 0,6 C 6,0 C
06.04.2012 17:37 7,5 C 61 % 1008,4 hPa 0,0 l/m 9,0 km/h (2 Bft) W-SW 247 0,5 C 5,8 C
06.04.2012 17:42 7,4 C 61 % 1008,5 hPa 0,0 l/m 10,4 km/h (2 Bft) W 270 0,4 C 5,4 C
06.04.2012 17:47 7,4 C 61 % 1008,4 hPa 0,0 l/m 15,8 km/h (3 Bft) W-SW 247 0,4 C 4,6 C
06.04.2012 17:52 7,4 C 61 % 1008,3 hPa 0,0 l/m 9,0 km/h (2 Bft) W-SW 247 0,4 C 5,7 C
06.04.2012 17:57 7,3 C 62 % 1008,2 hPa 0,0 l/m 8,3 km/h (2 Bft) W-NW 292 0,5 C 5,8 C
06.04.2012 18:02 7,3 C 62 % 1008,1 hPa 0,0 l/m 15,1 km/h (3 Bft) W-SW 247 0,5 C 4,6 C
06.04.2012 18:07 7,2 C 62 % 1008,2 hPa 0,0 l/m 17,6 km/h (3 Bft) W-SW 247 0,4 C 4,1 C
06.04.2012 18:12 7,2 C 62 % 1008,2 hPa 0,0 l/m 6,1 km/h (2 Bft) W-SW 247 0,4 C 6,2 C
06.04.2012 18:17 7,2 C 63 % 1008,1 hPa 0,0 l/m 8,3 km/h (2 Bft) W 270 0,6 C 5,6 C
06.04.2012 18:22 7,2 C 63 % 1008,0 hPa 0,0 l/m 10,8 km/h (2 Bft) SW 225 0,6 C 5,1 C
06.04.2012 18:27 7,2 C 63 % 1008,1 hPa 0,0 l/m 10,4 km/h (2 Bft) W-SW 247 0,6 C 5,2 C
06.04.2012 18:32 7,1 C 63 % 1008,0 hPa 0,0 l/m 10,8 km/h (2 Bft) W-SW 247 0,5 C 5,0 C
06.04.2012 18:37 7,1 C 63 % 1008,0 hPa 0,0 l/m 20,2 km/h (4 Bft) W-SW 247 0,5 C 3,7 C
06.04.2012 18:42 7,1 C 62 % 1007,9 hPa 0,0 l/m 17,6 km/h (3 Bft) W-SW 247 0,3 C 4,0 C
06.04.2012 18:47 7,0 C 62 % 1007,8 hPa 0,0 l/m 13,7 km/h (3 Bft) W-SW 247 0,2 C 4,4 C
06.04.2012 18:52 6,9 C 62 % 1007,8 hPa 0,0 l/m 4,0 km/h (1 Bft) W-NW 292 0,1 C 6,9 C
06.04.2012 18:57 6,9 C 63 % 1008,0 hPa 0,0 l/m 9,7 km/h (2 Bft) W-SW 247 0,4 C 5,0 C
06.04.2012 19:02 6,9 C 63 % 1007,9 hPa 0,0 l/m 11,5 km/h (2 Bft) W 270 0,4 C 4,6 C
06.04.2012 19:07 6,8 C 64 % 1007,9 hPa 0,0 l/m 8,3 km/h (2 Bft) W-SW 247 0,5 C 5,2 C
06.04.2012 19:12 6,8 C 64 % 1007,9 hPa 0,0 l/m 5,0 km/h (1 Bft) SW 225 0,5 C 6,1 C
06.04.2012 19:17 6,7 C 64 % 1007,6 hPa 0,0 l/m 14,0 km/h (3 Bft) W-SW 247 0,4 C 4,0 C
06.04.2012 19:22 6,6 C 64 % 1007,5 hPa 0,0 l/m 9,4 km/h (2 Bft) W-SW 247 0,3 C 4,7 C
06.04.2012 19:27 6,5 C 64 % 1007,4 hPa 0,0 l/m 4,7 km/h (1 Bft) W-SW 247 0,2 C 5,9 C
06.04.2012 19:32 6,4 C 64 % 1007,4 hPa 0,0 l/m 7,2 km/h (2 Bft) W-SW 247 0,1 C 5,0 C
06.04.2012 19:37 6,3 C 64 % 1007,4 hPa 0,0 l/m 3,2 km/h (1 Bft) S 180 0,0 C 6,3 C
06.04.2012 19:42 6,3 C 64 % 1007,3 hPa 0,0 l/m 5,8 km/h (2 Bft) W 270 0,0 C 5,3 C
06.04.2012 19:47 6,1 C 64 % 1007,3 hPa 0,0 l/m 7,6 km/h (2 Bft) W-SW 247 -0,2 C 4,5 C
06.04.2012 19:52 6,1 C 65 % 1007,3 hPa 0,0 l/m 5,4 km/h (1 Bft) W-SW 247 0,0 C 5,2 C
06.04.2012 19:57 6,1 C 65 % 1007,3 hPa 0,0 l/m 6,1 km/h (2 Bft) SW 225 0,0 C 5,0 C
06.04.2012 20:02 5,9 C 66 % 1007,2 hPa 0,0 l/m 10,4 km/h (2 Bft) SW 225 0,0 C 3,7 C
06.04.2012 20:07 5,9 C 66 % 1007,2 hPa 0,0 l/m 5,4 km/h (1 Bft) S-SW 202 0,0 C 5,0 C
06.04.2012 20:12 5,9 C 66 % 1007,3 hPa 0,0 l/m 8,3 km/h (2 Bft) W-SW 247 0,0 C 4,1 C
06.04.2012 20:17 5,8 C 66 % 1007,1 hPa 0,0 l/m 6,1 km/h (2 Bft) SW 225 -0,0 C 4,6 C
06.04.2012 20:22 5,7 C 67 % 1007,1 hPa 0,0 l/m 5,0 km/h (1 Bft) S 180 0,1 C 4,9 C
06.04.2012 20:27 5,6 C 68 % 1007,1 hPa 0,0 l/m 7,6 km/h (2 Bft) SW 225 0,2 C 3,9 C
06.04.2012 20:32 5,6 C 68 % 1007,1 hPa 0,0 l/m 6,1 km/h (2 Bft) S-SW 202 0,2 C 4,4 C
06.04.2012 20:37 5,6 C 69 % 1007,1 hPa 0,0 l/m 10,1 km/h (2 Bft) SW 225 0,4 C 3,4 C
06.04.2012 20:42 5,6 C 69 % 1007,0 hPa 0,0 l/m 4,3 km/h (1 Bft) S-SW 202 0,4 C 5,6 C
06.04.2012 20:47 5,6 C 69 % 1007,0 hPa 0,0 l/m 6,5 km/h (2 Bft) W-SW 247 0,4 C 4,3 C
06.04.2012 20:52 5,6 C 69 % 1007,0 hPa 0,0 l/m 9,4 km/h (2 Bft) S 180 0,4 C 3,5 C
06.04.2012 20:57 5,5 C 69 % 1007,1 hPa 0,0 l/m 5,8 km/h (2 Bft) SW 225 0,3 C 4,4 C
06.04.2012 21:02 5,5 C 70 % 1006,9 hPa 0,0 l/m 8,3 km/h (2 Bft) S-SW 202 0,5 C 3,6 C
06.04.2012 21:07 5,5 C 70 % 1006,9 hPa 0,0 l/m 6,1 km/h (2 Bft) S-SW 202 0,5 C 4,3 C
06.04.2012 21:12 5,5 C 70 % 1006,8 hPa 0,0 l/m 4,7 km/h (1 Bft) S 180 0,5 C 4,8 C
06.04.2012 21:17 5,5 C 70 % 1006,8 hPa 0,0 l/m 9,4 km/h (2 Bft) SW 225 0,5 C 3,4 C
06.04.2012 21:22 5,5 C 70 % 1006,7 hPa 0,0 l/m 6,8 km/h (2 Bft) SW 225 0,5 C 4,1 C
06.04.2012 21:27 5,5 C 70 % 1006,6 hPa 0,0 l/m 4,7 km/h (1 Bft) SW 225 0,5 C 4,8 C
06.04.2012 21:32 5,5 C 71 % 1006,6 hPa 0,0 l/m 11,9 km/h (2 Bft) S-SW 202 0,7 C 2,9 C
06.04.2012 21:37 5,5 C 71 % 1006,4 hPa 0,0 l/m 12,2 km/h (2 Bft) SW 225 0,7 C 2,8 C
06.04.2012 21:42 5,5 C 71 % 1006,3 hPa 0,0 l/m 8,6 km/h (2 Bft) S-SO 157 0,7 C 3,6 C
06.04.2012 21:47 5,5 C 71 % 1006,3 hPa 0,0 l/m 6,1 km/h (2 Bft) S-SW 202 0,7 C 4,3 C
06.04.2012 21:52 5,4 C 71 % 1006,2 hPa 0,0 l/m 4,7 km/h (1 Bft) S 180 0,6 C 4,7 C
06.04.2012 21:57 5,4 C 72 % 1006,2 hPa 0,0 l/m 16,6 km/h (3 Bft) S 180 0,8 C 2,0 C
06.04.2012 22:02 5,4 C 72 % 1006,1 hPa 0,0 l/m 3,2 km/h (1 Bft) S 180 0,8 C 5,4 C
06.04.2012 22:07 5,3 C 72 % 1006,0 hPa 0,0 l/m 9,4 km/h (2 Bft) S-SW 202 0,7 C 3,1 C
06.04.2012 22:12 5,3 C 73 % 1005,8 hPa 0,0 l/m 5,0 km/h (1 Bft) S-SO 157 0,9 C 4,4 C
06.04.2012 22:17 5,3 C 73 % 1005,8 hPa 0,0 l/m 5,0 km/h (1 Bft) S-SW 202 0,9 C 4,4 C
06.04.2012 22:22 5,3 C 73 % 1005,8 hPa 0,0 l/m 6,1 km/h (2 Bft) W-SW 247 0,9 C 4,0 C
06.04.2012 22:27 5,2 C 73 % 1005,8 hPa 0,0 l/m 10,4 km/h (2 Bft) S-SW 202 0,8 C 2,8 C
06.04.2012 22:32 5,2 C 73 % 1005,6 hPa 0,0 l/m 13,7 km/h (3 Bft) S-SW 202 0,8 C 2,2 C
06.04.2012 22:37 5,2 C 73 % 1005,3 hPa 0,0 l/m 13,3 km/h (3 Bft) S 180 0,8 C 2,3 C
06.04.2012 22:42 5,2 C 73 % 1005,4 hPa 0,0 l/m 10,1 km/h (2 Bft) S 180 0,8 C 2,9 C
06.04.2012 22:47 5,2 C 73 % 1005,2 hPa 0,0 l/m 6,1 km/h (2 Bft) SW 225 0,8 C 3,9 C
06.04.2012 22:52 5,2 C 73 % 1005,2 hPa 0,0 l/m 9,4 km/h (2 Bft) S-SW 202 0,8 C 3,0 C
06.04.2012 22:57 5,2 C 73 % 1005,1 hPa 0,0 l/m 6,5 km/h (2 Bft) S-SW 202 0,8 C 3,8 C
06.04.2012 23:02 5,2 C 74 % 1005,1 hPa 0,0 l/m 6,5 km/h (2 Bft) SW 225 1,0 C 3,8 C
06.04.2012 23:07 5,2 C 74 % 1005,1 hPa 0,0 l/m 8,6 km/h (2 Bft) S 180 1,0 C 3,2 C
06.04.2012 23:12 5,1 C 74 % 1004,8 hPa 0,0 l/m 9,0 km/h (2 Bft) S-SO 157 0,9 C 3,0 C
06.04.2012 23:17 5,1 C 74 % 1004,7 hPa 0,0 l/m 7,6 km/h (2 Bft) S-SW 202 0,9 C 3,4 C
06.04.2012 23:22 5,1 C 74 % 1004,8 hPa 0,0 l/m 15,8 km/h (3 Bft) SW 225 0,9 C 1,8 C
06.04.2012 23:27 5,1 C 74 % 1004,8 hPa 0,0 l/m 7,9 km/h (2 Bft) S-SW 202 0,9 C 3,3 C
06.04.2012 23:32 5,1 C 74 % 1004,5 hPa 0,0 l/m 4,0 km/h (1 Bft) W-SW 247 0,9 C 5,1 C
06.04.2012 23:37 5,1 C 75 % 1004,6 hPa 0,0 l/m 7,6 km/h (2 Bft) SW 225 1,0 C 3,4 C
06.04.2012 23:42 5,1 C 75 % 1004,5 hPa 0,0 l/m 6,5 km/h (2 Bft) S 180 1,0 C 3,7 C
06.04.2012 23:47 5,1 C 75 % 1004,6 hPa 0,0 l/m 5,8 km/h (2 Bft) SW 225 1,0 C 3,9 C
06.04.2012 23:52 5,1 C 75 % 1004,6 hPa 0,0 l/m 6,1 km/h (2 Bft) W-SW 247 1,0 C 3,8 C
06.04.2012 23:57 5,1 C 75 % 1004,5 hPa 0,0 l/m 7,9 km/h (2 Bft) S 180 1,0 C 3,3 C
_ Min-Zeit 06:17 12:57 23:32 - 00:02 - - 06:17 06:17
Minimum _ -0,1 C 56 % 1004,5 hPa - 0,0 km/h (0 Bft) - - -3,0 C -0,1 C
_ Max-Zeit 13:32 07:12 00:12 00:02 18:37 - - 12:12 13:32
Maximum _ 9,5 C 82 % 1018,5 hPa 0,0 l/m 20,2 km/h
W-SW (4 Bft)
- - 2,3 C 9,5 C
Durchschnitt _ 4,9 C 71 % 1012,0 hPa #0,0 l/m 4,8 km/h (1 Bft) W-SW - -0,1 C 4,1 C
(c) by David Heller